Terminal Aerodrome Forecast
Issued by NWS Sioux Falls, SD

Home | Current Version | Previous Version | Text Only | Print | Product List | Glossary On
Versions: 1 2 3 4 5 6 7 8 9 10 11 12 13 14 15 16 17 18
188
FTUS43 KFSD 011720
TAFHON
TAF
KHON 011720Z 0118/0218 31015G22KT P6SM OVC015
     FM012000 31016G23KT P6SM BKN025
     FM012200 32012KT P6SM SCT035
     FM020200 16004KT P6SM BKN110
     FM020700 13006KT 4SM -SN OVC030
      TEMPO 0208/0210 2SM -SN OVC020
     FM021100 33008KT P6SM OVC015
     FM021400 33011G19KT P6SM OVC012
     FM021700 34013G21KT P6SM BKN020=

USA.gov is the U.S. government's official web portal to all federal, state and local government web resources and services.